Ardmore Dauntless — V7JI3 — position and weather

sailwx.info

Track history (hours):
 
Tides and Currents Weather Stations Pressure Air Temp Water Temp Dewpoint Dewpoint Depression Visibility Wind Speed Wind Dir Waves Ship Positions

Ardmore Dauntless

Last reported at 2018-Jul-13 00:40 UTC. Time now 2018-Jul-18 14:43 UTC.
Position S 29°45' E 031°29'.

Length 184 m; draft 7.6 m.

Type: Tanker. MMSI: 538006053.

Date/timePositionNaut miles runAvg speedWind from/ knotsBaromVisibWave heightAir tempDewpointWater temp
2018-Jul-13 00:40S 29°45' E 031°29'213.6
2018-Jul-13 00:30S 29°45' E 031°27'713.6
2018-Jul-12 23:58S 29°48' E 031°19'713.8
2018-Jul-12 23:29S 29°49' E 031°12'612.7
2018-Jul-12 23:00S 29°51' E 031°05'3 6.6
2018-Jul-12 22:30S 29°53' E 031°02'0 0.0
2018-Jul-12 14:54S 29°53' E 031°02'0 0.1
2018-Jul-12 14:30S 29°53' E 031°02'1 2.4
2018-Jul-12 14:00S 29°53' E 031°03'4 7.7
2018-Jul-12 13:30S 29°49' E 031°06'5 9.5
2018-Jul-12 13:00S 29°54' E 031°07'510.7
2018-Jul-12 12:30S 29°59' E 031°07'5 9.4
2018-Jul-12 12:00S 30°04' E 031°06'2812.4
2018-Jul-12 09:45S 30°28' E 030°50'  
2018-Jul-09 17:10S 34°47' E 018°44'312.5
2018-Jul-09 16:56S 34°46' E 018°40'512.7
2018-Jul-09 16:30S 34°44' E 018°34'2412.9
2018-Jul-09 14:38S 34°34' E 018°08'312.8
2018-Jul-09 14:23S 34°32' E 018°04'512.6
2018-Jul-09 14:00S 34°30' E 017°59'812.5
2018-Jul-09 13:24S 34°24' E 017°54'512.6
2018-Jul-09 13:00S 34°20' E 017°51'612.6
2018-Jul-09 12:30S 34°14' E 017°49'713.1
2018-Jul-09 12:00S 34°08' E 017°46'713.5
2018-Jul-09 11:29S 34°01' E 017°42'1013.4
2018-Jul-09 10:44S 33°52' E 017°37'  
Track history (hours):
 
Tides and Currents Weather Stations Pressure Air Temp Water Temp Dewpoint Dewpoint Depression Visibility Wind Speed Wind Dir Waves Ship Positions

Ardmore Dauntless

Last reported at 2018-Jul-13 00:40 UTC. Time now 2018-Jul-18 14:43 UTC.
Position S 29°45' E 031°29'.

Length 184 m; draft 7.6 m.

Type: Tanker. MMSI: 538006053.

Date/timePositionNaut miles runAvg speedWind from/ knotsBaromVisibWave heightAir tempDewpointWater temp
2018-Jul-13 00:40S 29°45' E 031°29'213.6
2018-Jul-13 00:30S 29°45' E 031°27'713.6
2018-Jul-12 23:58S 29°48' E 031°19'713.8
2018-Jul-12 23:29S 29°49' E 031°12'612.7
2018-Jul-12 23:00S 29°51' E 031°05'3 6.6
2018-Jul-12 22:30S 29°53' E 031°02'0 0.0
2018-Jul-12 14:54S 29°53' E 031°02'0 0.1
2018-Jul-12 14:30S 29°53' E 031°02'1 2.4
2018-Jul-12 14:00S 29°53' E 031°03'4 7.7
2018-Jul-12 13:30S 29°49' E 031°06'5 9.5
2018-Jul-12 13:00S 29°54' E 031°07'510.7
2018-Jul-12 12:30S 29°59' E 031°07'5 9.4
2018-Jul-12 12:00S 30°04' E 031°06'2812.4
2018-Jul-12 09:45S 30°28' E 030°50'  
2018-Jul-09 17:10S 34°47' E 018°44'312.5
2018-Jul-09 16:56S 34°46' E 018°40'512.7
2018-Jul-09 16:30S 34°44' E 018°34'2412.9
2018-Jul-09 14:38S 34°34' E 018°08'312.8
2018-Jul-09 14:23S 34°32' E 018°04'512.6
2018-Jul-09 14:00S 34°30' E 017°59'812.5
2018-Jul-09 13:24S 34°24' E 017°54'512.6
2018-Jul-09 13:00S 34°20' E 017°51'612.6
2018-Jul-09 12:30S 34°14' E 017°49'713.1
2018-Jul-09 12:00S 34°08' E 017°46'713.5
2018-Jul-09 11:29S 34°01' E 017°42'1013.4
2018-Jul-09 10:44S 33°52' E 017°37'  

Dump ship's entire track history